createdAt,value
2022-12-03T00:00:15.575Z,12.00
2022-12-03T00:02:43.402Z,13.03
2022-12-03T00:05:11.478Z,12.70
2022-12-03T00:07:39.396Z,13.30
2022-12-03T00:10:08.852Z,12.53
2022-12-03T00:12:36.797Z,11.13
2022-12-03T00:15:05.828Z,11.40
2022-12-03T00:17:33.703Z,12.37
2022-12-03T00:20:01.475Z,13.07
2022-12-03T00:22:31.371Z,11.70
2022-12-03T00:24:59.120Z,12.77
2022-12-03T00:27:26.630Z,13.07
2022-12-03T00:29:54.324Z,12.37
2022-12-03T00:32:22.023Z,12.90
2022-12-03T00:34:50.007Z,10.70
2022-12-03T00:37:17.836Z,13.23
2022-12-03T00:39:45.574Z,12.80
2022-12-03T00:42:13.491Z,12.43
2022-12-03T00:44:41.473Z,10.90
2022-12-03T00:47:10.128Z,11.73
2022-12-03T00:49:37.906Z,12.53
2022-12-03T00:52:05.659Z,12.03
2022-12-03T00:54:33.075Z,12.20
2022-12-03T00:57:00.778Z,13.33
2022-12-03T00:59:28.438Z,11.43
2022-12-03T01:01:56.267Z,11.80
2022-12-03T01:04:24.123Z,12.00
2022-12-03T01:06:51.865Z,11.67
2022-12-03T01:09:19.337Z,10.43
2022-12-03T01:11:47.078Z,11.97
2022-12-03T01:14:18.815Z,12.10
2022-12-03T01:16:47.358Z,11.68
2022-12-03T01:19:16.536Z,12.43
2022-12-03T01:21:45.779Z,12.80
2022-12-03T01:24:13.425Z,14.27
2022-12-03T01:26:41.205Z,11.10
2022-12-03T01:29:08.769Z,11.77
2022-12-03T01:31:51.783Z,11.20
2022-12-03T01:34:19.481Z,11.53
2022-12-03T01:36:47.171Z,11.37
2022-12-03T01:39:14.815Z,11.90
2022-12-03T01:41:42.723Z,13.23
2022-12-03T01:44:18.491Z,13.33
2022-12-03T01:46:46.580Z,12.10
2022-12-03T01:49:20.523Z,11.73
2022-12-03T01:51:49.901Z,13.17
2022-12-03T01:54:22.469Z,13.13
2022-12-03T01:56:50.272Z,12.27
2022-12-03T01:59:22.092Z,13.10
2022-12-03T02:01:50.147Z,14.63
2022-12-03T02:04:20.998Z,12.63
2022-12-03T02:06:48.832Z,13.90
2022-12-03T02:09:16.457Z,12.53
2022-12-03T02:11:47.283Z,12.93
2022-12-03T02:14:20.827Z,12.50
2022-12-03T02:16:49.160Z,13.03
2022-12-03T02:19:25.508Z,13.50
2022-12-03T02:22:19.703Z,12.70
2022-12-03T02:24:59.040Z,11.97
2022-12-03T02:27:28.612Z,13.27
2022-12-03T02:29:56.449Z,12.17
2022-12-03T02:32:24.306Z,13.53
2022-12-03T02:34:52.493Z,12.17
2022-12-03T02:37:25.933Z,13.80
2022-12-03T02:39:57.672Z,12.40
2022-12-03T02:42:40.849Z,10.52
2022-12-03T02:45:14.858Z,13.30
2022-12-03T02:47:46.051Z,10.07
2022-12-03T02:50:17.730Z,11.57
2022-12-03T02:52:46.670Z,12.20
2022-12-03T02:55:17.302Z,11.97
2022-12-03T02:57:48.236Z,12.27
2022-12-03T03:00:17.783Z,12.47
2022-12-03T03:02:47.331Z,12.80
2022-12-03T03:05:16.254Z,11.43
2022-12-03T03:07:44.489Z,12.37
2022-12-03T03:10:15.384Z,11.97
2022-12-03T03:12:46.306Z,12.63
2022-12-03T03:15:14.767Z,13.17
2022-12-03T03:17:43.300Z,13.37
2022-12-03T03:20:13.427Z,12.43
2022-12-03T03:22:43.061Z,12.80
2022-12-03T03:25:15.556Z,13.10
2022-12-03T03:27:43.682Z,10.87
2022-12-03T03:30:14.599Z,12.77
2022-12-03T03:32:43.596Z,11.43
2022-12-03T03:35:12.061Z,12.10
2022-12-03T03:37:39.831Z,11.73
2022-12-03T03:40:08.194Z,11.13
2022-12-03T03:42:36.075Z,11.60
2022-12-03T03:45:03.914Z,11.77
2022-12-03T03:47:31.871Z,11.40
2022-12-03T03:49:59.583Z,10.10
2022-12-03T03:52:27.085Z,10.90
2022-12-03T03:54:55.104Z,12.03
2022-12-03T03:57:22.699Z,10.07
2022-12-03T03:59:50.489Z,11.87
2022-12-03T04:02:22.868Z,12.07
2022-12-03T04:04:51.153Z,11.00
2022-12-03T04:07:19.007Z,10.13
2022-12-03T04:09:46.759Z,11.53
2022-12-03T04:12:29.816Z,11.03
2022-12-03T04:14:57.873Z,12.77
2022-12-03T04:17:25.540Z,11.93
2022-12-03T04:19:53.366Z,11.87
2022-12-03T04:22:36.631Z,11.87
2022-12-03T04:25:19.976Z,10.57
2022-12-03T04:28:03.048Z,9.50
2022-12-03T04:30:30.838Z,10.93
2022-12-03T04:33:14.051Z,10.27
2022-12-03T04:35:42.879Z,13.37
2022-12-03T04:38:11.705Z,12.27
2022-12-03T04:40:55.061Z,11.03
2022-12-03T04:43:22.747Z,9.53
2022-12-03T04:45:50.396Z,11.80
2022-12-03T04:48:18.202Z,10.40
2022-12-03T04:50:45.908Z,10.60
2022-12-03T04:53:13.486Z,12.20
2022-12-03T04:55:40.882Z,10.60
2022-12-03T04:58:08.638Z,11.43
2022-12-03T05:00:36.108Z,9.37
2022-12-03T05:03:03.922Z,8.83
2022-12-03T05:05:31.679Z,11.03
2022-12-03T05:07:59.095Z,9.23
2022-12-03T05:10:26.502Z,9.80
2022-12-03T05:12:55.452Z,12.23
2022-12-03T05:15:26.217Z,11.03
2022-12-03T05:17:53.937Z,12.10
2022-12-03T05:20:36.920Z,10.23
2022-12-03T05:23:04.302Z,9.63
2022-12-03T05:25:32.010Z,10.40
2022-12-03T05:27:59.690Z,8.87
2022-12-03T05:30:27.861Z,10.13
2022-12-03T05:32:55.452Z,10.97
2022-12-03T05:35:23.231Z,10.67
2022-12-03T05:37:51.071Z,12.30
2022-12-03T05:40:19.788Z,10.43
2022-12-03T05:42:55.212Z,12.50
2022-12-03T05:45:28.133Z,9.63
2022-12-03T05:47:56.969Z,11.20
2022-12-03T05:50:30.282Z,11.57
2022-12-03T05:53:02.356Z,12.73
2022-12-03T05:55:30.628Z,12.75
2022-12-03T05:57:58.774Z,11.33
2022-12-03T06:00:30.767Z,11.43
2022-12-03T06:03:01.175Z,12.67
2022-12-03T06:05:29.463Z,10.93
2022-12-03T06:08:02.105Z,12.33
2022-12-03T06:10:31.863Z,13.30
2022-12-03T06:13:04.203Z,10.83
2022-12-03T06:15:32.357Z,14.13
2022-12-03T06:18:00.492Z,12.47
2022-12-03T06:20:27.866Z,13.33
2022-12-03T06:22:55.642Z,11.60
2022-12-03T06:25:23.107Z,13.07
2022-12-03T06:27:50.880Z,12.73
2022-12-03T06:30:18.768Z,13.17
2022-12-03T06:32:46.166Z,14.83
2022-12-03T06:35:13.537Z,13.40
2022-12-03T06:37:41.299Z,12.90
2022-12-03T06:40:09.183Z,13.60
2022-12-03T06:42:37.161Z,13.50
2022-12-03T06:45:05.032Z,13.43
2022-12-03T06:47:32.913Z,13.97
2022-12-03T06:50:00.803Z,11.63
2022-12-03T06:52:28.507Z,14.00
2022-12-03T06:54:56.774Z,13.90
2022-12-03T06:57:24.625Z,13.97
2022-12-03T06:59:52.656Z,15.77
2022-12-03T07:02:20.490Z,13.27
2022-12-03T07:04:48.349Z,13.10
2022-12-03T07:07:16.330Z,13.97
2022-12-03T07:09:44.271Z,12.83
2022-12-03T07:12:12.093Z,12.33
2022-12-03T07:14:39.902Z,13.40
2022-12-03T07:17:10.263Z,14.70
2022-12-03T07:19:38.070Z,14.47
2022-12-03T07:22:06.014Z,13.57
2022-12-03T07:24:33.749Z,14.60
2022-12-03T07:27:01.485Z,13.73
2022-12-03T07:29:29.282Z,14.67
2022-12-03T07:31:57.132Z,13.53
2022-12-03T07:34:24.828Z,13.40
2022-12-03T07:36:52.667Z,12.90
2022-12-03T07:39:20.594Z,14.43
2022-12-03T07:41:48.309Z,14.40
2022-12-03T07:44:16.028Z,12.50
2022-12-03T07:46:43.844Z,14.20
2022-12-03T07:49:12.461Z,13.90
2022-12-03T07:51:40.486Z,13.07
2022-12-03T07:54:08.318Z,13.53
2022-12-03T07:56:36.443Z,13.83
2022-12-03T07:59:04.805Z,13.53
2022-12-03T08:01:32.647Z,13.60
2022-12-03T08:04:00.235Z,13.70
2022-12-03T08:06:27.899Z,13.17
2022-12-03T08:08:55.618Z,13.67
2022-12-03T08:11:23.170Z,13.03
2022-12-03T08:13:50.871Z,12.83
2022-12-03T08:16:21.097Z,13.10
2022-12-03T08:18:50.628Z,12.13
2022-12-03T08:21:21.783Z,10.93
2022-12-03T08:23:49.648Z,13.07
2022-12-03T08:26:25.968Z,11.47
2022-12-03T08:28:54.193Z,13.83
2022-12-03T08:31:32.901Z,12.13
2022-12-03T08:34:18.553Z,13.80
2022-12-03T08:36:46.611Z,12.43
2022-12-03T08:39:30.724Z,11.33
2022-12-03T08:42:38.549Z,13.23
2022-12-03T08:45:40.504Z,11.30
2022-12-03T08:48:25.752Z,11.37
2022-12-03T08:50:56.920Z,12.37
2022-12-03T08:53:46.602Z,12.00
2022-12-03T08:56:30.631Z,12.10
2022-12-03T08:59:13.260Z,13.00
2022-12-03T09:01:49.188Z,12.98
2022-12-03T09:04:37.442Z,12.27
2022-12-03T09:07:05.481Z,14.03
2022-12-03T09:09:34.796Z,13.60
2022-12-03T09:12:02.984Z,12.03
2022-12-03T09:14:30.873Z,12.33
2022-12-03T09:16:58.670Z,13.60
2022-12-03T09:19:27.935Z,13.97
2022-12-03T09:21:55.702Z,13.00
2022-12-03T09:24:23.511Z,13.87
2022-12-03T09:26:51.409Z,14.43
2022-12-03T09:29:19.067Z,13.07
2022-12-03T09:31:46.983Z,14.13
2022-12-03T09:34:14.764Z,14.00
2022-12-03T09:36:42.516Z,13.50
2022-12-03T09:39:10.348Z,13.70
2022-12-03T09:41:38.241Z,13.80
2022-12-03T09:44:06.989Z,13.63
2022-12-03T09:46:37.993Z,13.03
2022-12-03T09:49:13.934Z,13.60
2022-12-03T09:51:44.363Z,12.30
2022-12-03T09:54:21.403Z,13.83
2022-12-03T09:56:49.179Z,13.00
2022-12-03T09:59:17.662Z,15.17
2022-12-03T10:01:45.342Z,13.30
2022-12-03T10:04:13.141Z,14.07
2022-12-03T10:06:45.602Z,13.67
2022-12-03T10:09:17.594Z,14.73
2022-12-03T10:11:45.457Z,13.00
2022-12-03T10:14:17.380Z,13.03
2022-12-03T10:16:45.270Z,13.82
2022-12-03T10:19:22.105Z,14.97
2022-12-03T10:21:49.640Z,13.10
2022-12-03T10:24:28.221Z,14.37
2022-12-03T10:26:58.637Z,13.97
2022-12-03T10:29:33.908Z,13.73
2022-12-03T10:32:07.041Z,14.10
2022-12-03T10:34:37.365Z,14.57
2022-12-03T10:37:21.316Z,14.17
2022-12-03T10:39:59.937Z,14.37
2022-12-03T10:42:30.234Z,13.60
2022-12-03T10:45:15.515Z,13.27
2022-12-03T10:47:44.299Z,14.60
2022-12-03T10:50:19.161Z,14.10
2022-12-03T10:52:47.196Z,13.30
2022-12-03T10:55:16.410Z,12.97
2022-12-03T10:57:46.122Z,14.00
2022-12-03T11:00:17.719Z,15.60
2022-12-03T11:02:56.100Z,14.33
2022-12-03T11:05:27.626Z,14.33
2022-12-03T11:07:56.182Z,14.67
2022-12-03T11:10:24.232Z,14.03
2022-12-03T11:13:22.410Z,15.33
2022-12-03T11:15:50.261Z,14.93
2022-12-03T11:18:53.018Z,15.03
2022-12-03T11:21:20.803Z,14.07
2022-12-03T11:24:17.629Z,13.70
2022-12-03T11:27:08.105Z,12.57
2022-12-03T11:29:55.955Z,14.87
2022-12-03T11:32:58.642Z,14.67
2022-12-03T11:35:34.974Z,14.20
2022-12-03T11:38:38.709Z,14.60
2022-12-03T11:41:21.323Z,13.70
2022-12-03T11:44:01.568Z,14.02
2022-12-03T11:46:46.927Z,15.20
2022-12-03T11:49:24.966Z,13.80
2022-12-03T11:51:52.570Z,14.20
2022-12-03T11:54:23.264Z,14.00
2022-12-03T11:56:52.198Z,14.30
2022-12-03T11:59:20.205Z,15.30
2022-12-03T12:01:48.162Z,14.90
2022-12-03T12:04:33.895Z,14.03
2022-12-03T12:07:02.018Z,15.93
2022-12-03T12:09:54.077Z,13.43
2022-12-03T12:12:32.911Z,14.80
2022-12-03T12:15:00.709Z,13.57
2022-12-03T12:17:32.450Z,14.47
2022-12-03T12:20:30.536Z,12.23
2022-12-03T12:23:22.185Z,13.20
2022-12-03T12:25:54.240Z,14.23
2022-12-03T12:28:22.147Z,13.30
2022-12-03T12:30:49.844Z,15.30
2022-12-03T12:33:23.613Z,14.07
2022-12-03T12:35:51.974Z,14.57
2022-12-03T12:38:20.951Z,16.07
2022-12-03T12:40:50.370Z,14.77
2022-12-03T12:43:36.190Z,14.50
2022-12-03T12:46:46.251Z,14.53
2022-12-03T12:49:05.475Z,14.20
2022-12-03T12:51:39.290Z,14.33
2022-12-03T12:54:12.527Z,13.70
2022-12-03T12:56:42.585Z,13.97
2022-12-03T12:59:15.114Z,13.60
2022-12-03T13:01:46.769Z,12.82
2022-12-03T13:04:21.132Z,9.40
2022-12-03T13:06:50.968Z,13.43
2022-12-03T13:09:27.359Z,12.17
2022-12-03T13:12:01.131Z,11.67
2022-12-03T13:14:35.345Z,9.23
2022-12-03T13:17:14.376Z,12.43
2022-12-03T13:19:48.279Z,11.33
2022-12-03T13:22:20.680Z,9.57
2022-12-03T13:24:51.520Z,9.83
2022-12-03T13:27:28.906Z,6.60
2022-12-03T13:30:16.017Z,7.70
2022-12-03T13:32:44.251Z,8.77
2022-12-03T13:35:30.780Z,6.83
2022-12-03T13:37:59.329Z,4.10
2022-12-03T13:40:30.895Z,6.63
2022-12-03T13:42:59.079Z,8.50
2022-12-03T13:45:36.152Z,9.53
2022-12-03T13:48:17.010Z,8.07
2022-12-03T13:50:46.324Z,8.63
2022-12-03T13:53:32.958Z,6.30
2022-12-03T13:56:31.098Z,6.97
2022-12-03T13:59:00.864Z,6.83
2022-12-03T14:01:29.055Z,6.10
2022-12-03T14:03:57.315Z,6.73
2022-12-03T14:06:25.099Z,8.13
2022-12-03T14:08:53.087Z,6.50
2022-12-03T14:11:38.894Z,7.40
2022-12-03T14:14:06.876Z,8.70
2022-12-03T14:16:34.834Z,6.20
2022-12-03T14:19:02.748Z,7.50
2022-12-03T14:21:31.421Z,9.37
2022-12-03T14:23:59.039Z,9.07
2022-12-03T14:26:27.870Z,8.90
2022-12-03T14:28:56.610Z,9.60
2022-12-03T14:31:26.000Z,9.43
2022-12-03T14:33:57.308Z,10.10
2022-12-03T14:36:25.720Z,9.10
2022-12-03T14:38:53.483Z,10.10
2022-12-03T14:41:36.629Z,9.23
2022-12-03T14:44:04.507Z,9.23
2022-12-03T14:46:32.295Z,8.60
2022-12-03T14:49:00.333Z,8.90
2022-12-03T14:51:28.443Z,9.20
2022-12-03T14:53:56.323Z,9.97
2022-12-03T14:56:26.935Z,11.33
2022-12-03T14:58:55.037Z,11.03
2022-12-03T15:01:23.122Z,8.20
2022-12-03T15:03:51.361Z,9.97
2022-12-03T15:06:19.140Z,9.33
2022-12-03T15:08:47.060Z,10.07
2022-12-03T15:11:19.574Z,10.27
2022-12-03T15:13:47.173Z,9.45
2022-12-03T15:16:16.374Z,10.73
2022-12-03T15:18:47.306Z,10.43
2022-12-03T15:21:16.413Z,9.33
2022-12-03T15:23:46.991Z,9.00
2022-12-03T15:26:17.549Z,11.00
2022-12-03T15:28:50.679Z,9.97
2022-12-03T15:31:21.230Z,10.67
2022-12-03T15:33:51.915Z,9.33
2022-12-03T15:36:19.864Z,10.73
2022-12-03T15:38:51.336Z,10.40
2022-12-03T15:41:22.036Z,9.27
2022-12-03T15:43:51.130Z,9.67
2022-12-03T15:46:26.816Z,9.63
2022-12-03T15:48:59.516Z,9.73
2022-12-03T15:51:34.019Z,9.80
2022-12-03T15:54:06.865Z,9.63
2022-12-03T15:56:37.834Z,9.73
2022-12-03T15:59:06.557Z,10.60
2022-12-03T16:01:42.949Z,10.03
2022-12-03T16:04:13.390Z,9.70
2022-12-03T16:06:41.566Z,11.00
2022-12-03T16:09:09.395Z,8.50
2022-12-03T16:11:39.294Z,10.20
2022-12-03T16:14:08.677Z,9.80
2022-12-03T16:16:37.512Z,8.80
2022-12-03T16:19:05.777Z,8.27
2022-12-03T16:21:39.813Z,8.93
2022-12-03T16:24:10.071Z,7.30
2022-12-03T16:26:41.845Z,8.43
2022-12-03T16:29:13.599Z,7.25
2022-12-03T16:31:44.638Z,6.75
2022-12-03T16:34:17.077Z,4.33
2022-12-03T16:36:54.903Z,6.33
2022-12-03T16:39:27.746Z,5.47
2022-12-03T16:41:57.315Z,5.43
2022-12-03T16:44:50.321Z,6.03
2022-12-03T16:49:51.123Z,6.23
2022-12-03T16:52:23.680Z,6.43
2022-12-03T16:54:54.040Z,5.60
2022-12-03T16:57:28.887Z,6.93
2022-12-03T17:00:05.259Z,6.00
2022-12-03T17:02:34.050Z,5.00
2022-12-03T17:05:02.418Z,7.73
2022-12-03T17:07:39.219Z,7.30
2022-12-03T17:10:07.770Z,7.23
2022-12-03T17:13:07.766Z,6.70
2022-12-03T17:15:25.946Z,7.90
2022-12-03T17:17:57.061Z,8.00
2022-12-03T17:20:26.900Z,8.40
2022-12-03T17:22:54.722Z,7.27
2022-12-03T17:25:22.619Z,8.77
2022-12-03T17:27:51.195Z,7.63
2022-12-03T17:30:19.216Z,8.17
2022-12-03T17:32:48.678Z,8.57
2022-12-03T17:35:16.312Z,8.10
2022-12-03T17:37:44.292Z,8.20
2022-12-03T17:40:14.471Z,7.67
2022-12-03T17:42:42.721Z,7.37
2022-12-03T17:45:12.121Z,6.37
2022-12-03T17:47:40.798Z,6.97
2022-12-03T17:50:09.490Z,7.90
2022-12-03T17:52:37.483Z,7.07
2022-12-03T17:55:21.167Z,6.70
2022-12-03T17:57:53.434Z,8.00
2022-12-03T18:00:21.668Z,6.10
2022-12-03T18:02:49.664Z,5.90
2022-12-03T18:05:17.563Z,6.20
2022-12-03T18:07:48.719Z,6.70
2022-12-03T18:10:16.839Z,7.57
2022-12-03T18:12:44.676Z,7.77
2022-12-03T18:15:12.504Z,8.40
2022-12-03T18:17:40.804Z,6.83
2022-12-03T18:20:09.171Z,7.40
2022-12-03T18:22:38.045Z,8.20
2022-12-03T18:25:08.524Z,7.43
2022-12-03T18:27:39.388Z,6.50
2022-12-03T18:30:08.446Z,6.65
2022-12-03T18:32:36.825Z,7.23
2022-12-03T18:35:08.144Z,7.43
2022-12-03T18:37:36.610Z,7.37
2022-12-03T18:40:12.878Z,7.43
2022-12-03T18:42:41.417Z,7.30
2022-12-03T18:45:13.597Z,6.40
2022-12-03T18:47:41.968Z,7.85
2022-12-03T18:50:13.352Z,5.37
2022-12-03T18:52:41.558Z,5.77
2022-12-03T18:55:14.633Z,6.70
2022-12-03T18:57:43.392Z,8.70
2022-12-03T19:00:13.733Z,7.03
2022-12-03T19:05:29.851Z,8.40
2022-12-03T19:07:58.200Z,7.10
2022-12-03T19:10:26.504Z,8.47
2022-12-03T19:12:54.422Z,7.17
2022-12-03T19:15:23.113Z,6.23
2022-12-03T19:17:54.315Z,7.73
2022-12-03T19:20:25.268Z,8.43
2022-12-03T19:22:58.041Z,8.43
2022-12-03T19:25:28.744Z,7.27
2022-12-03T19:28:01.946Z,7.47
2022-12-03T19:30:31.342Z,8.47
2022-12-03T19:33:02.014Z,7.53
2022-12-03T19:35:30.875Z,8.97
2022-12-03T19:38:04.363Z,5.17
2022-12-03T19:40:36.027Z,7.97
2022-12-03T19:43:04.798Z,9.07
2022-12-03T19:45:42.832Z,8.03
2022-12-03T19:48:15.444Z,8.60
2022-12-03T19:51:13.528Z,9.80
2022-12-03T19:53:46.921Z,8.87
2022-12-03T19:56:17.629Z,8.23
2022-12-03T19:58:51.653Z,8.57
2022-12-03T20:01:21.952Z,9.80
2022-12-03T20:03:57.128Z,9.60
2022-12-03T20:06:28.443Z,9.83
2022-12-03T20:09:03.547Z,9.70
2022-12-03T20:11:35.079Z,8.30
2022-12-03T20:14:07.587Z,8.73
2022-12-03T20:16:38.135Z,9.13
2022-12-03T20:19:07.729Z,8.13
2022-12-03T20:21:40.594Z,9.87
2022-12-03T20:24:10.428Z,9.70
2022-12-03T20:26:40.362Z,9.40
2022-12-03T20:29:12.821Z,9.65
2022-12-03T20:31:42.968Z,8.40
2022-12-03T20:34:11.215Z,9.30
2022-12-03T20:36:40.219Z,9.60
2022-12-03T20:39:10.800Z,8.20
2022-12-03T20:41:42.361Z,9.83
2022-12-03T20:44:14.833Z,8.73
2022-12-03T20:46:42.990Z,8.80
2022-12-03T20:49:13.817Z,9.13
2022-12-03T20:51:42.818Z,8.63
2022-12-03T20:54:11.051Z,8.73
2022-12-03T20:56:40.307Z,9.10
2022-12-03T20:59:13.562Z,9.17
2022-12-03T21:01:41.436Z,8.80
2022-12-03T21:04:09.801Z,8.80
2022-12-03T21:06:38.273Z,8.97
2022-12-03T21:09:10.420Z,8.90
2022-12-03T21:11:41.682Z,8.15
2022-12-03T21:14:11.000Z,8.80
2022-12-03T21:19:30.319Z,8.60
2022-12-03T21:21:57.968Z,8.77
2022-12-03T21:24:25.767Z,9.17
2022-12-03T21:26:53.781Z,9.83
2022-12-03T21:29:24.425Z,9.73
2022-12-03T21:31:52.420Z,9.53
2022-12-03T21:34:20.460Z,9.33
2022-12-03T21:36:48.427Z,9.53
2022-12-03T21:39:17.341Z,10.27
2022-12-03T21:42:18.753Z,10.00
2022-12-03T21:44:33.051Z,10.20
2022-12-03T21:47:10.159Z,9.80
2022-12-03T21:49:40.906Z,10.30
2022-12-03T21:52:08.826Z,10.60
2022-12-03T21:54:36.511Z,9.50
2022-12-03T21:57:04.558Z,9.93
2022-12-03T21:59:32.529Z,10.37
2022-12-03T22:02:01.451Z,10.80
2022-12-03T22:04:29.031Z,9.83
2022-12-03T22:06:57.078Z,10.63
2022-12-03T22:09:26.690Z,11.00
2022-12-03T22:11:56.994Z,10.70
2022-12-03T22:14:24.717Z,9.70
2022-12-03T22:16:52.699Z,9.97
2022-12-03T22:19:23.519Z,11.10
2022-12-03T22:21:51.358Z,10.70
2022-12-03T22:24:19.823Z,10.97
2022-12-03T22:26:47.939Z,12.30
2022-12-03T22:29:16.054Z,12.50
2022-12-03T22:31:43.844Z,13.03
2022-12-03T22:34:11.610Z,12.73
2022-12-03T22:36:39.500Z,9.30
2022-12-03T22:39:07.233Z,10.83
2022-12-03T22:41:35.155Z,8.13
2022-12-03T22:44:03.004Z,10.53
2022-12-03T22:46:30.836Z,10.43
2022-12-03T22:49:03.399Z,10.17
2022-12-03T22:51:34.916Z,10.67
2022-12-03T22:54:02.911Z,10.73
2022-12-03T22:56:30.842Z,10.60
2022-12-03T22:58:59.155Z,8.83
2022-12-03T23:01:31.068Z,9.97
2022-12-03T23:03:59.316Z,7.20
2022-12-03T23:06:28.340Z,8.33
2022-12-03T23:08:56.812Z,8.77
2022-12-03T23:11:24.444Z,9.77
2022-12-03T23:13:52.480Z,9.00
2022-12-03T23:16:23.557Z,9.10
2022-12-03T23:18:51.439Z,8.53
2022-12-03T23:21:28.858Z,9.57
2022-12-03T23:23:59.116Z,8.80
2022-12-03T23:26:27.127Z,9.83
2022-12-03T23:28:54.905Z,9.37
2022-12-03T23:31:25.817Z,9.80
2022-12-03T23:33:53.726Z,8.97
2022-12-03T23:36:22.516Z,9.73
2022-12-03T23:38:50.336Z,9.87
2022-12-03T23:41:20.315Z,9.53
2022-12-03T23:43:48.463Z,9.73
2022-12-03T23:46:21.826Z,8.67
2022-12-03T23:48:50.012Z,9.37
2022-12-03T23:51:20.972Z,8.47
2022-12-03T23:53:49.041Z,9.80
2022-12-03T23:56:19.541Z,9.87
2022-12-03T23:58:50.403Z,10.60
